sensor_id;sensor_type;location;lat;lon;timestamp;P1;durP1;ratioP1;P2;durP2;ratioP2
44862;SDS011;30597;49.628;10.850;2022-09-16T00:00:50;3.27;;;3.00;;
44862;SDS011;30597;49.628;10.850;2022-09-16T00:03:16;3.47;;;3.17;;
44862;SDS011;30597;49.628;10.850;2022-09-16T00:05:43;3.50;;;3.20;;
44862;SDS011;30597;49.628;10.850;2022-09-16T00:08:11;3.60;;;3.30;;
44862;SDS011;30597;49.628;10.850;2022-09-16T00:10:37;3.77;;;2.77;;
44862;SDS011;30597;49.628;10.850;2022-09-16T00:13:02;3.80;;;3.17;;
44862;SDS011;30597;49.628;10.850;2022-09-16T00:15:28;4.00;;;3.40;;
44862;SDS011;30597;49.628;10.850;2022-09-16T00:17:54;4.00;;;2.87;;
44862;SDS011;30597;49.628;10.850;2022-09-16T00:20:19;3.90;;;2.93;;
44862;SDS011;30597;49.628;10.850;2022-09-16T00:22:45;5.33;;;3.57;;
44862;SDS011;30597;49.628;10.850;2022-09-16T00:25:10;4.17;;;3.17;;
44862;SDS011;30597;49.628;10.850;2022-09-16T00:27:36;4.00;;;3.60;;
44862;SDS011;30597;49.628;10.850;2022-09-16T00:30:02;3.07;;;2.87;;
44862;SDS011;30597;49.628;10.850;2022-09-16T00:32:29;4.53;;;3.47;;
44862;SDS011;30597;49.628;10.850;2022-09-16T00:34:54;3.70;;;3.23;;
44862;SDS011;30597;49.628;10.850;2022-09-16T00:37:20;3.07;;;2.80;;
44862;SDS011;30597;49.628;10.850;2022-09-16T00:39:46;2.77;;;2.50;;
44862;SDS011;30597;49.628;10.850;2022-09-16T00:42:13;3.20;;;2.90;;
44862;SDS011;30597;49.628;10.850;2022-09-16T00:47:36;3.13;;;2.83;;
44862;SDS011;30597;49.628;10.850;2022-09-16T00:50:16;3.90;;;2.90;;
44862;SDS011;30597;49.628;10.850;2022-09-16T00:52:45;3.10;;;2.80;;
44862;SDS011;30597;49.628;10.850;2022-09-16T00:55:14;4.30;;;2.93;;
44862;SDS011;30597;49.628;10.850;2022-09-16T00:57:45;3.83;;;3.47;;
44862;SDS011;30597;49.628;10.850;2022-09-16T01:00:11;2.87;;;2.67;;
44862;SDS011;30597;49.628;10.850;2022-09-16T01:02:38;3.10;;;2.80;;
44862;SDS011;30597;49.628;10.850;2022-09-16T01:05:10;2.90;;;2.70;;
44862;SDS011;30597;49.628;10.850;2022-09-16T01:07:49;3.60;;;3.30;;
44862;SDS011;30597;49.628;10.850;2022-09-16T01:10:17;31.63;;;3.40;;
44862;SDS011;30597;49.628;10.850;2022-09-16T01:12:46;2.70;;;2.40;;
44862;SDS011;30597;49.628;10.850;2022-09-16T01:15:17;2.90;;;2.70;;
44862;SDS011;30597;49.628;10.850;2022-09-16T01:31:53;2.73;;;2.53;;
44862;SDS011;30597;49.628;10.850;2022-09-16T01:37:07;2.50;;;2.30;;
44862;SDS011;30597;49.628;10.850;2022-09-16T01:43:06;2.63;;;2.40;;
44862;SDS011;30597;49.628;10.850;2022-09-16T01:45:39;3.57;;;3.17;;
44862;SDS011;30597;49.628;10.850;2022-09-16T01:50:59;2.30;;;2.10;;
44862;SDS011;30597;49.628;10.850;2022-09-16T01:56:47;2.50;;;2.30;;
44862;SDS011;30597;49.628;10.850;2022-09-16T01:59:21;3.40;;;2.60;;
44862;SDS011;30597;49.628;10.850;2022-09-16T02:02:06;2.63;;;2.43;;
44862;SDS011;30597;49.628;10.850;2022-09-16T02:04:38;2.97;;;2.73;;
44862;SDS011;30597;49.628;10.850;2022-09-16T02:07:10;3.03;;;2.43;;
44862;SDS011;30597;49.628;10.850;2022-09-16T02:09:40;2.57;;;2.30;;
44862;SDS011;30597;49.628;10.850;2022-09-16T02:12:14;3.07;;;2.67;;
44862;SDS011;30597;49.628;10.850;2022-09-16T02:14:44;2.47;;;2.23;;
44862;SDS011;30597;49.628;10.850;2022-09-16T02:17:17;2.97;;;2.67;;
44862;SDS011;30597;49.628;10.850;2022-09-16T02:19:51;2.80;;;2.10;;
44862;SDS011;30597;49.628;10.850;2022-09-16T02:22:26;2.83;;;2.63;;
44862;SDS011;30597;49.628;10.850;2022-09-16T02:24:56;3.37;;;3.07;;
44862;SDS011;30597;49.628;10.850;2022-09-16T02:27:23;2.23;;;2.10;;
44862;SDS011;30597;49.628;10.850;2022-09-16T02:29:52;2.70;;;2.50;;
44862;SDS011;30597;49.628;10.850;2022-09-16T02:32:22;3.40;;;3.07;;
44862;SDS011;30597;49.628;10.850;2022-09-16T02:34:52;2.43;;;2.23;;
44862;SDS011;30597;49.628;10.850;2022-09-16T02:37:27;2.40;;;2.20;;
44862;SDS011;30597;49.628;10.850;2022-09-16T02:39:59;2.57;;;2.37;;
44862;SDS011;30597;49.628;10.850;2022-09-16T02:42:30;2.97;;;2.67;;
44862;SDS011;30597;49.628;10.850;2022-09-16T02:44:57;2.80;;;2.60;;
44862;SDS011;30597;49.628;10.850;2022-09-16T02:47:26;3.10;;;2.57;;
44862;SDS011;30597;49.628;10.850;2022-09-16T02:50:00;2.60;;;2.40;;
44862;SDS011;30597;49.628;10.850;2022-09-16T02:52:35;2.60;;;2.40;;
44862;SDS011;30597;49.628;10.850;2022-09-16T02:57:44;2.40;;;2.20;;
44862;SDS011;30597;49.628;10.850;2022-09-16T03:00:10;3.33;;;3.13;;
44862;SDS011;30597;49.628;10.850;2022-09-16T03:02:36;2.70;;;2.50;;
44862;SDS011;30597;49.628;10.850;2022-09-16T03:05:02;3.03;;;2.70;;
44862;SDS011;30597;49.628;10.850;2022-09-16T03:07:28;2.00;;;1.90;;
44862;SDS011;30597;49.628;10.850;2022-09-16T03:09:54;3.70;;;2.63;;
44862;SDS011;30597;49.628;10.850;2022-09-16T03:17:54;2.53;;;2.33;;
44862;SDS011;30597;49.628;10.850;2022-09-16T03:26:18;2.50;;;2.30;;
44862;SDS011;30597;49.628;10.850;2022-09-16T03:29:07;2.33;;;2.13;;
44862;SDS011;30597;49.628;10.850;2022-09-16T03:32:06;2.20;;;2.00;;
44862;SDS011;30597;49.628;10.850;2022-09-16T03:37:08;2.30;;;2.10;;
44862;SDS011;30597;49.628;10.850;2022-09-16T03:39:37;2.37;;;2.17;;
44862;SDS011;30597;49.628;10.850;2022-09-16T03:42:04;2.23;;;2.03;;
44862;SDS011;30597;49.628;10.850;2022-09-16T03:44:36;2.50;;;2.30;;
44862;SDS011;30597;49.628;10.850;2022-09-16T03:47:04;2.40;;;2.10;;
44862;SDS011;30597;49.628;10.850;2022-09-16T03:49:31;2.73;;;2.50;;
44862;SDS011;30597;49.628;10.850;2022-09-16T03:51:56;2.07;;;1.97;;
44862;SDS011;30597;49.628;10.850;2022-09-16T03:54:23;2.30;;;2.10;;
44862;SDS011;30597;49.628;10.850;2022-09-16T03:56:48;2.20;;;2.03;;
44862;SDS011;30597;49.628;10.850;2022-09-16T03:59:14;1.93;;;1.70;;
44862;SDS011;30597;49.628;10.850;2022-09-16T04:01:40;1.73;;;1.63;;
44862;SDS011;30597;49.628;10.850;2022-09-16T04:04:06;2.30;;;2.10;;
44862;SDS011;30597;49.628;10.850;2022-09-16T04:06:32;2.20;;;2.00;;
44862;SDS011;30597;49.628;10.850;2022-09-16T04:08:57;2.20;;;2.00;;
44862;SDS011;30597;49.628;10.850;2022-09-16T04:11:25;2.00;;;1.90;;
44862;SDS011;30597;49.628;10.850;2022-09-16T04:13:53;2.90;;;2.63;;
44862;SDS011;30597;49.628;10.850;2022-09-16T04:16:19;2.07;;;1.97;;
44862;SDS011;30597;49.628;10.850;2022-09-16T04:18:46;2.60;;;1.87;;
44862;SDS011;30597;49.628;10.850;2022-09-16T04:21:12;3.00;;;2.00;;
44862;SDS011;30597;49.628;10.850;2022-09-16T04:23:37;2.20;;;1.80;;
44862;SDS011;30597;49.628;10.850;2022-09-16T04:26:03;2.00;;;1.87;;
44862;SDS011;30597;49.628;10.850;2022-09-16T04:28:29;2.70;;;2.17;;
44862;SDS011;30597;49.628;10.850;2022-09-16T04:31:02;2.10;;;1.90;;
44862;SDS011;30597;49.628;10.850;2022-09-16T04:33:30;2.00;;;1.90;;
44862;SDS011;30597;49.628;10.850;2022-09-16T04:36:01;1.87;;;1.77;;
44862;SDS011;30597;49.628;10.850;2022-09-16T04:38:34;2.07;;;1.97;;
44862;SDS011;30597;49.628;10.850;2022-09-16T04:41:05;2.03;;;1.83;;
44862;SDS011;30597;49.628;10.850;2022-09-16T04:43:33;2.10;;;1.90;;
44862;SDS011;30597;49.628;10.850;2022-09-16T04:45:59;1.80;;;1.70;;
44862;SDS011;30597;49.628;10.850;2022-09-16T04:48:25;2.13;;;2.03;;
44862;SDS011;30597;49.628;10.850;2022-09-16T04:50:54;3.30;;;2.13;;
44862;SDS011;30597;49.628;10.850;2022-09-16T04:53:25;1.80;;;1.67;;
44862;SDS011;30597;49.628;10.850;2022-09-16T04:55:51;2.80;;;2.23;;
44862;SDS011;30597;49.628;10.850;2022-09-16T04:58:17;1.90;;;1.80;;
44862;SDS011;30597;49.628;10.850;2022-09-16T05:00:42;2.07;;;1.87;;
44862;SDS011;30597;49.628;10.850;2022-09-16T05:03:08;2.50;;;2.30;;
44862;SDS011;30597;49.628;10.850;2022-09-16T05:05:33;2.23;;;2.13;;
44862;SDS011;30597;49.628;10.850;2022-09-16T05:07:59;2.20;;;2.00;;
44862;SDS011;30597;49.628;10.850;2022-09-16T05:10:25;2.00;;;1.80;;
44862;SDS011;30597;49.628;10.850;2022-09-16T05:12:52;2.30;;;2.10;;
44862;SDS011;30597;49.628;10.850;2022-09-16T05:15:19;2.17;;;1.97;;
44862;SDS011;30597;49.628;10.850;2022-09-16T05:17:44;1.90;;;1.80;;
44862;SDS011;30597;49.628;10.850;2022-09-16T05:20:11;1.57;;;1.47;;
44862;SDS011;30597;49.628;10.850;2022-09-16T05:22:36;1.93;;;1.83;;
44862;SDS011;30597;49.628;10.850;2022-09-16T05:25:03;2.43;;;2.20;;
44862;SDS011;30597;49.628;10.850;2022-09-16T05:27:29;2.20;;;2.00;;
44862;SDS011;30597;49.628;10.850;2022-09-16T05:29:55;1.90;;;1.60;;
44862;SDS011;30597;49.628;10.850;2022-09-16T05:32:21;2.30;;;2.10;;
44862;SDS011;30597;49.628;10.850;2022-09-16T05:34:47;2.77;;;2.47;;
44862;SDS011;30597;49.628;10.850;2022-09-16T05:37:13;4.20;;;3.00;;
44862;SDS011;30597;49.628;10.850;2022-09-16T05:39:39;2.80;;;2.60;;
44862;SDS011;30597;49.628;10.850;2022-09-16T05:42:04;2.63;;;2.37;;
44862;SDS011;30597;49.628;10.850;2022-09-16T05:44:30;2.00;;;1.90;;
44862;SDS011;30597;49.628;10.850;2022-09-16T05:46:56;2.80;;;2.50;;
44862;SDS011;30597;49.628;10.850;2022-09-16T05:49:21;3.20;;;2.90;;
44862;SDS011;30597;49.628;10.850;2022-09-16T05:51:48;1.83;;;1.73;;
44862;SDS011;30597;49.628;10.850;2022-09-16T05:54:14;2.97;;;2.63;;
44862;SDS011;30597;49.628;10.850;2022-09-16T05:56:42;2.97;;;2.60;;
44862;SDS011;30597;49.628;10.850;2022-09-16T05:59:09;4.30;;;3.20;;
44862;SDS011;30597;49.628;10.850;2022-09-16T06:01:35;2.80;;;2.60;;
44862;SDS011;30597;49.628;10.850;2022-09-16T06:04:01;5.73;;;3.27;;
44862;SDS011;30597;49.628;10.850;2022-09-16T06:06:29;5.60;;;2.90;;
44862;SDS011;30597;49.628;10.850;2022-09-16T06:09:06;2.90;;;2.60;;
44862;SDS011;30597;49.628;10.850;2022-09-16T06:11:52;3.30;;;2.70;;
44862;SDS011;30597;49.628;10.850;2022-09-16T06:14:19;2.63;;;2.23;;
44862;SDS011;30597;49.628;10.850;2022-09-16T06:16:46;4.00;;;2.33;;
44862;SDS011;30597;49.628;10.850;2022-09-16T06:19:13;2.80;;;2.50;;
44862;SDS011;30597;49.628;10.850;2022-09-16T06:21:40;2.10;;;1.70;;
44862;SDS011;30597;49.628;10.850;2022-09-16T06:24:07;3.07;;;2.70;;
44862;SDS011;30597;49.628;10.850;2022-09-16T06:26:34;4.50;;;2.50;;
44862;SDS011;30597;49.628;10.850;2022-09-16T06:29:04;6.70;;;2.83;;
44862;SDS011;30597;49.628;10.850;2022-09-16T06:31:31;10.33;;;2.73;;
44862;SDS011;30597;49.628;10.850;2022-09-16T06:33:57;3.30;;;2.93;;
44862;SDS011;30597;49.628;10.850;2022-09-16T06:36:25;5.07;;;2.63;;
44862;SDS011;30597;49.628;10.850;2022-09-16T06:38:52;4.70;;;2.40;;
44862;SDS011;30597;49.628;10.850;2022-09-16T06:41:19;3.53;;;2.63;;
44862;SDS011;30597;49.628;10.850;2022-09-16T06:43:45;4.40;;;2.60;;
44862;SDS011;30597;49.628;10.850;2022-09-16T06:46:14;4.53;;;2.70;;
44862;SDS011;30597;49.628;10.850;2022-09-16T06:48:41;3.90;;;2.77;;
44862;SDS011;30597;49.628;10.850;2022-09-16T06:51:10;4.30;;;2.63;;
44862;SDS011;30597;49.628;10.850;2022-09-16T06:53:38;4.40;;;2.80;;
44862;SDS011;30597;49.628;10.850;2022-09-16T06:56:05;5.37;;;2.40;;
44862;SDS011;30597;49.628;10.850;2022-09-16T06:58:33;5.70;;;2.93;;
44862;SDS011;30597;49.628;10.850;2022-09-16T07:01:05;4.57;;;2.33;;
44862;SDS011;30597;49.628;10.850;2022-09-16T07:03:36;2.90;;;2.50;;
44862;SDS011;30597;49.628;10.850;2022-09-16T07:06:03;3.33;;;2.33;;
44862;SDS011;30597;49.628;10.850;2022-09-16T07:08:29;2.40;;;2.20;;
44862;SDS011;30597;49.628;10.850;2022-09-16T07:10:56;3.03;;;2.73;;
44862;SDS011;30597;49.628;10.850;2022-09-16T07:13:32;3.27;;;2.47;;
44862;SDS011;30597;49.628;10.850;2022-09-16T07:16:02;3.43;;;2.00;;
44862;SDS011;30597;49.628;10.850;2022-09-16T07:18:29;2.93;;;2.30;;
44862;SDS011;30597;49.628;10.850;2022-09-16T07:21:05;5.63;;;2.60;;
44862;SDS011;30597;49.628;10.850;2022-09-16T07:23:34;4.17;;;2.27;;
44862;SDS011;30597;49.628;10.850;2022-09-16T07:26:05;3.20;;;2.40;;
44862;SDS011;30597;49.628;10.850;2022-09-16T07:28:38;2.10;;;1.70;;
44862;SDS011;30597;49.628;10.850;2022-09-16T07:31:06;2.50;;;2.20;;
44862;SDS011;30597;49.628;10.850;2022-09-16T07:33:37;2.60;;;2.40;;
44862;SDS011;30597;49.628;10.850;2022-09-16T07:36:05;3.20;;;2.50;;
44862;SDS011;30597;49.628;10.850;2022-09-16T07:38:31;3.30;;;2.30;;
44862;SDS011;30597;49.628;10.850;2022-09-16T07:41:07;2.73;;;1.90;;
44862;SDS011;30597;49.628;10.850;2022-09-16T07:43:46;3.57;;;2.40;;
44862;SDS011;30597;49.628;10.850;2022-09-16T07:46:12;2.10;;;1.90;;
44862;SDS011;30597;49.628;10.850;2022-09-16T07:48:41;2.50;;;2.30;;
44862;SDS011;30597;49.628;10.850;2022-09-16T07:51:08;3.27;;;2.30;;
44862;SDS011;30597;49.628;10.850;2022-09-16T07:53:36;2.40;;;2.20;;
44862;SDS011;30597;49.628;10.850;2022-09-16T07:56:20;2.07;;;1.87;;
44862;SDS011;30597;49.628;10.850;2022-09-16T07:58:49;3.03;;;2.10;;
44862;SDS011;30597;49.628;10.850;2022-09-16T08:01:15;2.50;;;2.07;;
44862;SDS011;30597;49.628;10.850;2022-09-16T08:03:42;2.43;;;2.23;;
44862;SDS011;30597;49.628;10.850;2022-09-16T08:06:11;2.10;;;2.00;;
44862;SDS011;30597;49.628;10.850;2022-09-16T08:08:43;2.50;;;2.30;;
44862;SDS011;30597;49.628;10.850;2022-09-16T08:11:09;3.50;;;2.50;;
44862;SDS011;30597;49.628;10.850;2022-09-16T08:13:36;2.50;;;2.30;;
44862;SDS011;30597;49.628;10.850;2022-09-16T08:16:03;2.00;;;1.80;;
44862;SDS011;30597;49.628;10.850;2022-09-16T08:18:31;3.50;;;1.93;;
44862;SDS011;30597;49.628;10.850;2022-09-16T08:20:57;2.90;;;1.93;;
44862;SDS011;30597;49.628;10.850;2022-09-16T08:23:23;2.30;;;2.10;;
44862;SDS011;30597;49.628;10.850;2022-09-16T08:25:58;3.40;;;2.20;;
44862;SDS011;30597;49.628;10.850;2022-09-16T08:28:25;2.73;;;1.80;;
44862;SDS011;30597;49.628;10.850;2022-09-16T08:30:51;3.83;;;2.73;;
44862;SDS011;30597;49.628;10.850;2022-09-16T08:33:17;2.30;;;2.07;;
44862;SDS011;30597;49.628;10.850;2022-09-16T08:35:46;2.73;;;2.17;;
44862;SDS011;30597;49.628;10.850;2022-09-16T08:38:21;2.20;;;2.00;;
44862;SDS011;30597;49.628;10.850;2022-09-16T08:40:46;3.50;;;2.10;;
44862;SDS011;30597;49.628;10.850;2022-09-16T08:43:22;2.17;;;1.60;;
44862;SDS011;30597;49.628;10.850;2022-09-16T08:48:58;1.77;;;1.67;;
44862;SDS011;30597;49.628;10.850;2022-09-16T08:51:41;4.17;;;2.33;;
44862;SDS011;30597;49.628;10.850;2022-09-16T08:54:12;3.43;;;2.00;;
44862;SDS011;30597;49.628;10.850;2022-09-16T08:56:48;3.90;;;2.03;;
44862;SDS011;30597;49.628;10.850;2022-09-16T08:59:17;2.23;;;2.03;;
44862;SDS011;30597;49.628;10.850;2022-09-16T09:01:48;2.23;;;2.03;;
44862;SDS011;30597;49.628;10.850;2022-09-16T09:04:19;2.13;;;1.93;;
44862;SDS011;30597;49.628;10.850;2022-09-16T09:12:36;2.73;;;2.30;;
44862;SDS011;30597;49.628;10.850;2022-09-16T09:15:14;2.17;;;1.97;;
44862;SDS011;30597;49.628;10.850;2022-09-16T09:17:57;3.37;;;2.43;;
44862;SDS011;30597;49.628;10.850;2022-09-16T09:20:49;2.63;;;1.90;;
44862;SDS011;30597;49.628;10.850;2022-09-16T09:23:24;2.33;;;2.13;;
44862;SDS011;30597;49.628;10.850;2022-09-16T09:50:55;3.33;;;2.30;;
44862;SDS011;30597;49.628;10.850;2022-09-16T09:53:25;2.63;;;2.43;;
44862;SDS011;30597;49.628;10.850;2022-09-16T09:55:58;3.80;;;2.90;;
44862;SDS011;30597;49.628;10.850;2022-09-16T09:58:34;2.63;;;2.23;;
44862;SDS011;30597;49.628;10.850;2022-09-16T10:01:05;4.37;;;3.00;;
44862;SDS011;30597;49.628;10.850;2022-09-16T10:03:31;3.87;;;3.47;;
44862;SDS011;30597;49.628;10.850;2022-09-16T10:05:56;2.40;;;2.20;;
44862;SDS011;30597;49.628;10.850;2022-09-16T10:08:26;3.43;;;2.57;;
44862;SDS011;30597;49.628;10.850;2022-09-16T10:10:56;2.50;;;2.30;;
44862;SDS011;30597;49.628;10.850;2022-09-16T10:13:23;3.23;;;2.60;;
44862;SDS011;30597;49.628;10.850;2022-09-16T10:15:54;2.77;;;2.57;;
44862;SDS011;30597;49.628;10.850;2022-09-16T10:18:40;2.87;;;2.47;;
44862;SDS011;30597;49.628;10.850;2022-09-16T10:21:08;3.80;;;2.40;;
44862;SDS011;30597;49.628;10.850;2022-09-16T10:23:36;3.23;;;2.93;;
44862;SDS011;30597;49.628;10.850;2022-09-16T10:28:58;2.53;;;2.30;;
44862;SDS011;30597;49.628;10.850;2022-09-16T10:31:38;3.57;;;2.93;;
44862;SDS011;30597;49.628;10.850;2022-09-16T10:34:12;3.43;;;2.60;;
44862;SDS011;30597;49.628;10.850;2022-09-16T10:37:11;3.23;;;2.60;;
44862;SDS011;30597;49.628;10.850;2022-09-16T10:39:51;3.13;;;2.83;;
44862;SDS011;30597;49.628;10.850;2022-09-16T10:42:27;2.80;;;2.40;;
44862;SDS011;30597;49.628;10.850;2022-09-16T10:45:03;3.20;;;2.90;;
44862;SDS011;30597;49.628;10.850;2022-09-16T10:47:38;3.47;;;3.17;;
44862;SDS011;30597;49.628;10.850;2022-09-16T10:50:05;2.90;;;2.70;;
44862;SDS011;30597;49.628;10.850;2022-09-16T10:52:39;3.00;;;2.80;;
44862;SDS011;30597;49.628;10.850;2022-09-16T10:55:24;3.00;;;2.53;;
44862;SDS011;30597;49.628;10.850;2022-09-16T10:57:53;3.60;;;3.30;;
44862;SDS011;30597;49.628;10.850;2022-09-16T11:00:31;2.50;;;2.20;;
44862;SDS011;30597;49.628;10.850;2022-09-16T11:10:50;3.30;;;3.00;;
44862;SDS011;30597;49.628;10.850;2022-09-16T11:22:17;3.50;;;3.10;;
44862;SDS011;30597;49.628;10.850;2022-09-16T11:30:23;3.50;;;3.20;;
44862;SDS011;30597;49.628;10.850;2022-09-16T11:38:33;4.30;;;3.80;;
44862;SDS011;30597;49.628;10.850;2022-09-16T11:41:17;4.57;;;4.17;;
44862;SDS011;30597;49.628;10.850;2022-09-16T11:47:00;6.73;;;3.93;;
44862;SDS011;30597;49.628;10.850;2022-09-16T11:52:47;3.50;;;3.20;;
44862;SDS011;30597;49.628;10.850;2022-09-16T11:55:37;3.90;;;3.50;;
44862;SDS011;30597;49.628;10.850;2022-09-16T11:58:19;4.50;;;4.00;;
44862;SDS011;30597;49.628;10.850;2022-09-16T12:00:46;4.87;;;3.83;;
44862;SDS011;30597;49.628;10.850;2022-09-16T12:03:27;4.00;;;3.60;;
44862;SDS011;30597;49.628;10.850;2022-09-16T12:06:07;4.60;;;3.60;;
44862;SDS011;30597;49.628;10.850;2022-09-16T12:08:45;4.13;;;3.77;;
44862;SDS011;30597;49.628;10.850;2022-09-16T12:11:30;4.10;;;3.80;;
44862;SDS011;30597;49.628;10.850;2022-09-16T12:14:17;4.37;;;3.97;;
44862;SDS011;30597;49.628;10.850;2022-09-16T12:16:58;5.00;;;4.13;;
44862;SDS011;30597;49.628;10.850;2022-09-16T12:19:33;4.87;;;4.37;;
44862;SDS011;30597;49.628;10.850;2022-09-16T12:22:10;4.10;;;3.67;;
44862;SDS011;30597;49.628;10.850;2022-09-16T12:25:02;5.33;;;4.13;;
44862;SDS011;30597;49.628;10.850;2022-09-16T12:30:28;4.10;;;3.70;;
44862;SDS011;30597;49.628;10.850;2022-09-16T12:33:06;4.70;;;4.00;;
44862;SDS011;30597;49.628;10.850;2022-09-16T12:38:21;4.90;;;3.67;;
44862;SDS011;30597;49.628;10.850;2022-09-16T12:49:21;4.07;;;3.70;;
44862;SDS011;30597;49.628;10.850;2022-09-16T12:54:49;5.03;;;4.13;;
44862;SDS011;30597;49.628;10.850;2022-09-16T13:03:16;4.30;;;3.90;;
44862;SDS011;30597;49.628;10.850;2022-09-16T13:05:45;4.40;;;3.70;;
44862;SDS011;30597;49.628;10.850;2022-09-16T13:08:20;4.37;;;3.97;;
44862;SDS011;30597;49.628;10.850;2022-09-16T13:11:00;3.93;;;3.53;;
44862;SDS011;30597;49.628;10.850;2022-09-16T13:13:33;4.73;;;3.73;;
44862;SDS011;30597;49.628;10.850;2022-09-16T13:16:02;4.20;;;3.50;;
44862;SDS011;30597;49.628;10.850;2022-09-16T13:18:48;3.83;;;3.53;;
44862;SDS011;30597;49.628;10.850;2022-09-16T13:24:34;4.23;;;3.83;;
44862;SDS011;30597;49.628;10.850;2022-09-16T13:26:41;4.00;;;3.70;;
44862;SDS011;30597;49.628;10.850;2022-09-16T13:32:03;3.43;;;2.70;;
44862;SDS011;30597;49.628;10.850;2022-09-16T13:34:29;3.63;;;3.13;;
44862;SDS011;30597;49.628;10.850;2022-09-16T13:36:55;3.97;;;3.67;;
44862;SDS011;30597;49.628;10.850;2022-09-16T13:39:29;3.93;;;3.37;;
44862;SDS011;30597;49.628;10.850;2022-09-16T13:42:08;3.83;;;3.50;;
44862;SDS011;30597;49.628;10.850;2022-09-16T13:44:41;4.37;;;3.60;;
44862;SDS011;30597;49.628;10.850;2022-09-16T13:49:58;3.57;;;3.27;;
44862;SDS011;30597;49.628;10.850;2022-09-16T13:52:31;3.80;;;3.20;;
44862;SDS011;30597;49.628;10.850;2022-09-16T13:55:00;4.80;;;4.40;;
44862;SDS011;30597;49.628;10.850;2022-09-16T14:00:24;4.50;;;4.10;;
44862;SDS011;30597;49.628;10.850;2022-09-16T14:05:26;3.60;;;3.30;;
44862;SDS011;30597;49.628;10.850;2022-09-16T14:08:25;4.07;;;3.47;;
44862;SDS011;30597;49.628;10.850;2022-09-16T14:11:10;3.77;;;3.47;;
44862;SDS011;30597;49.628;10.850;2022-09-16T14:14:03;3.97;;;3.57;;
44862;SDS011;30597;49.628;10.850;2022-09-16T14:16:34;3.77;;;3.47;;
44862;SDS011;30597;49.628;10.850;2022-09-16T14:24:33;3.73;;;3.20;;
44862;SDS011;30597;49.628;10.850;2022-09-16T14:27:00;4.23;;;3.30;;
44862;SDS011;30597;49.628;10.850;2022-09-16T14:29:26;3.30;;;3.00;;
44862;SDS011;30597;49.628;10.850;2022-09-16T14:31:52;3.90;;;3.57;;
44862;SDS011;30597;49.628;10.850;2022-09-16T14:34:32;3.63;;;3.33;;
44862;SDS011;30597;49.628;10.850;2022-09-16T14:37:00;5.07;;;3.30;;
44862;SDS011;30597;49.628;10.850;2022-09-16T14:39:26;11.57;;;3.57;;
44862;SDS011;30597;49.628;10.850;2022-09-16T14:41:55;3.00;;;2.70;;
44862;SDS011;30597;49.628;10.850;2022-09-16T14:50:06;6.57;;;3.40;;
44862;SDS011;30597;49.628;10.850;2022-09-16T14:52:36;7.27;;;4.30;;
44862;SDS011;30597;49.628;10.850;2022-09-16T14:55:06;5.63;;;3.70;;
44862;SDS011;30597;49.628;10.850;2022-09-16T14:57:40;5.57;;;3.40;;
44862;SDS011;30597;49.628;10.850;2022-09-16T15:00:06;4.80;;;3.40;;
44862;SDS011;30597;49.628;10.850;2022-09-16T15:05:38;4.33;;;3.77;;
44862;SDS011;30597;49.628;10.850;2022-09-16T15:08:22;7.20;;;3.90;;
44862;SDS011;30597;49.628;10.850;2022-09-16T15:11:14;6.90;;;3.30;;
44862;SDS011;30597;49.628;10.850;2022-09-16T15:13:42;5.53;;;3.30;;
44862;SDS011;30597;49.628;10.850;2022-09-16T15:16:11;4.63;;;4.23;;
44862;SDS011;30597;49.628;10.850;2022-09-16T15:18:41;7.90;;;3.80;;
44862;SDS011;30597;49.628;10.850;2022-09-16T15:21:31;7.03;;;4.10;;
44862;SDS011;30597;49.628;10.850;2022-09-16T15:23:59;3.83;;;3.53;;
44862;SDS011;30597;49.628;10.850;2022-09-16T15:29:12;5.63;;;4.03;;
44862;SDS011;30597;49.628;10.850;2022-09-16T15:31:46;6.43;;;4.60;;
44862;SDS011;30597;49.628;10.850;2022-09-16T15:36:46;6.07;;;3.80;;
44862;SDS011;30597;49.628;10.850;2022-09-16T15:40:05;3.70;;;3.30;;
44862;SDS011;30597;49.628;10.850;2022-09-16T15:47:30;4.80;;;4.13;;
44862;SDS011;30597;49.628;10.850;2022-09-16T15:50:03;5.93;;;3.90;;
44862;SDS011;30597;49.628;10.850;2022-09-16T15:52:32;4.50;;;2.93;;
44862;SDS011;30597;49.628;10.850;2022-09-16T15:55:24;3.33;;;2.37;;
44862;SDS011;30597;49.628;10.850;2022-09-16T15:57:58;4.97;;;2.97;;
44862;SDS011;30597;49.628;10.850;2022-09-16T16:03:23;6.10;;;3.37;;
44862;SDS011;30597;49.628;10.850;2022-09-16T16:05:52;3.90;;;3.50;;
44862;SDS011;30597;49.628;10.850;2022-09-16T16:11:06;5.60;;;3.20;;
44862;SDS011;30597;49.628;10.850;2022-09-16T16:13:33;9.37;;;3.60;;
44862;SDS011;30597;49.628;10.850;2022-09-16T16:15:59;7.20;;;4.27;;
44862;SDS011;30597;49.628;10.850;2022-09-16T16:18:27;9.53;;;3.73;;
44862;SDS011;30597;49.628;10.850;2022-09-16T16:20:56;9.27;;;4.00;;
44862;SDS011;30597;49.628;10.850;2022-09-16T16:23:22;8.20;;;3.70;;
44862;SDS011;30597;49.628;10.850;2022-09-16T16:25:48;5.10;;;3.73;;
44862;SDS011;30597;49.628;10.850;2022-09-16T16:28:13;10.30;;;3.90;;
44862;SDS011;30597;49.628;10.850;2022-09-16T16:30:39;6.10;;;4.33;;
44862;SDS011;30597;49.628;10.850;2022-09-16T16:33:07;7.37;;;4.63;;
44862;SDS011;30597;49.628;10.850;2022-09-16T16:35:33;9.73;;;4.67;;
44862;SDS011;30597;49.628;10.850;2022-09-16T16:37:59;9.67;;;4.20;;
44862;SDS011;30597;49.628;10.850;2022-09-16T16:40:24;9.10;;;4.67;;
44862;SDS011;30597;49.628;10.850;2022-09-16T16:42:50;11.50;;;4.37;;
44862;SDS011;30597;49.628;10.850;2022-09-16T16:45:16;11.77;;;6.70;;
44862;SDS011;30597;49.628;10.850;2022-09-16T16:47:42;15.17;;;5.33;;
44862;SDS011;30597;49.628;10.850;2022-09-16T16:50:08;15.43;;;6.07;;
44862;SDS011;30597;49.628;10.850;2022-09-16T16:52:34;18.43;;;5.70;;
44862;SDS011;30597;49.628;10.850;2022-09-16T16:55:00;9.97;;;5.47;;
44862;SDS011;30597;49.628;10.850;2022-09-16T16:57:25;14.30;;;5.40;;
44862;SDS011;30597;49.628;10.850;2022-09-16T16:59:51;16.63;;;6.87;;
44862;SDS011;30597;49.628;10.850;2022-09-16T17:02:17;9.17;;;4.53;;
44862;SDS011;30597;49.628;10.850;2022-09-16T17:04:42;7.23;;;4.73;;
44862;SDS011;30597;49.628;10.850;2022-09-16T17:07:08;7.97;;;5.00;;
44862;SDS011;30597;49.628;10.850;2022-09-16T17:09:34;9.80;;;4.80;;
44862;SDS011;30597;49.628;10.850;2022-09-16T17:12:00;7.37;;;4.87;;
44862;SDS011;30597;49.628;10.850;2022-09-16T17:14:28;10.57;;;5.37;;
44862;SDS011;30597;49.628;10.850;2022-09-16T17:16:55;9.47;;;5.13;;
44862;SDS011;30597;49.628;10.850;2022-09-16T17:19:21;10.00;;;5.40;;
44862;SDS011;30597;49.628;10.850;2022-09-16T17:21:48;13.63;;;5.30;;
44862;SDS011;30597;49.628;10.850;2022-09-16T17:24:14;6.23;;;4.73;;
44862;SDS011;30597;49.628;10.850;2022-09-16T17:26:41;7.67;;;4.53;;
44862;SDS011;30597;49.628;10.850;2022-09-16T17:29:07;11.40;;;5.00;;
44862;SDS011;30597;49.628;10.850;2022-09-16T17:31:33;6.20;;;4.87;;
44862;SDS011;30597;49.628;10.850;2022-09-16T17:34:03;10.50;;;5.00;;
44862;SDS011;30597;49.628;10.850;2022-09-16T17:36:31;12.27;;;6.27;;
44862;SDS011;30597;49.628;10.850;2022-09-16T17:39:01;7.87;;;4.60;;
44862;SDS011;30597;49.628;10.850;2022-09-16T17:41:31;9.30;;;4.70;;
44862;SDS011;30597;49.628;10.850;2022-09-16T17:43:58;8.57;;;5.37;;
44862;SDS011;30597;49.628;10.850;2022-09-16T17:46:27;6.83;;;4.23;;
44862;SDS011;30597;49.628;10.850;2022-09-16T17:48:57;9.70;;;4.97;;
44862;SDS011;30597;49.628;10.850;2022-09-16T17:51:25;7.30;;;4.60;;
44862;SDS011;30597;49.628;10.850;2022-09-16T17:53:50;8.20;;;4.43;;
44862;SDS011;30597;49.628;10.850;2022-09-16T17:56:16;9.13;;;4.97;;